Time;durP1;ratioP1;P1;durP2;ratioP2;P2;SDS_P1;SDS_P2;PMS_P1;PMS_P2;Temp;Humidity;BMP_temperature;BMP_pressure;BME280_temperature;BME280_humidity;BME280_pressure;Samples;Min_cycle;Max_cycle;Signal;HPM_P1;HPM_P2
2022/05/21 00:01:37;;;;;;;7.20;3.40;;;23.00;99.90;;;;;;5050520;28;20111;-86
2022/05/21 00:04:03;;;;;;;4.72;3.00;;;23.00;99.90;;;;;;5041576;28;20107;-86
2022/05/21 00:06:28;;;;;;;5.28;2.83;;;23.00;99.90;;;;;;5059538;28;20497;-86
2022/05/21 00:08:54;;;;;;;12.02;3.40;;;23.00;99.90;;;;;;5040075;28;20032;-86
2022/05/21 00:11:19;;;;;;;5.25;2.95;;;23.10;99.90;;;;;;5035792;28;20032;-86
2022/05/21 00:13:47;;;;;;;5.75;3.72;;;23.10;99.90;;;;;;5038877;28;20394;-85
2022/05/21 00:16:13;;;;;;;6.53;3.05;;;23.00;99.90;;;;;;5040070;28;20029;-86
2022/05/21 00:18:39;;;;;;;6.45;3.30;;;23.00;99.90;;;;;;5039825;28;20037;-85
2022/05/21 00:21:05;;;;;;;7.00;3.25;;;23.00;99.90;;;;;;5054712;28;20024;-86
2022/05/21 00:23:32;;;;;;;7.10;3.40;;;23.00;99.90;;;;;;5065210;28;20040;-86
2022/05/21 00:26:08;;;;;;;5.40;3.30;;;23.00;99.90;;;;;;5050623;28;20029;-86
2022/05/21 00:28:36;;;;;;;8.45;3.60;;;23.00;99.90;;;;;;5049706;28;20152;-86
2022/05/21 00:31:03;;;;;;;5.88;3.28;;;22.90;99.90;;;;;;5049525;28;20110;-86
2022/05/21 00:33:29;;;;;;;8.20;3.40;;;23.00;99.90;;;;;;5047842;28;20029;-86
2022/05/21 00:35:55;;;;;;;5.03;3.40;;;23.00;99.90;;;;;;5047915;28;20498;-86
2022/05/21 00:38:21;;;;;;;5.35;3.13;;;23.20;99.90;;;;;;5051921;28;20064;-86
2022/05/21 00:40:48;;;;;;;5.30;3.40;;;23.00;99.90;;;;;;5050374;28;20021;-86
2022/05/21 00:43:39;;;;;;;4.88;3.20;;;23.00;99.90;;;;;;5046130;28;20413;-85
2022/05/21 00:46:08;;;;;;;5.88;3.58;;;23.00;99.90;;;;;;5041553;28;20493;-86
2022/05/21 00:48:36;;;;;;;5.05;3.45;;;23.10;99.90;;;;;;5038531;28;20037;-86
2022/05/21 00:51:01;;;;;;;7.72;3.60;;;23.00;99.90;;;;;;5039446;28;20021;-86
2022/05/21 00:53:28;;;;;;;6.72;3.83;;;23.00;99.90;;;;;;5036416;28;20064;-86
2022/05/21 00:55:54;;;;;;;5.43;3.17;;;22.90;99.90;;;;;;5036736;28;20104;-86
2022/05/21 01:01:11;;;;;;;8.02;3.67;;;22.80;99.90;;;;;;5047146;28;20082;-86
2022/05/21 01:03:37;;;;;;;7.30;3.30;;;22.90;99.90;;;;;;5045511;28;20056;-87
2022/05/21 01:06:03;;;;;;;4.45;3.20;;;22.90;99.90;;;;;;5037778;28;20496;-86
2022/05/21 01:08:29;;;;;;;5.20;3.33;;;22.90;99.90;;;;;;5035628;28;20022;-87
2022/05/21 01:11:06;;;;;;;6.40;3.38;;;22.80;99.90;;;;;;5036595;28;20030;-86
2022/05/21 01:13:34;;;;;;;6.90;3.65;;;22.70;99.90;;;;;;5084360;28;20507;-86
2022/05/21 01:16:00;;;;;;;4.13;3.03;;;22.80;99.90;;;;;;5047434;28;20048;-86
2022/05/21 01:18:26;;;;;;;5.75;3.25;;;22.70;99.90;;;;;;5047025;28;20017;-86
2022/05/21 01:20:57;;;;;;;7.15;3.40;;;22.70;99.90;;;;;;5050009;28;20461;-86
2022/05/21 01:23:24;;;;;;;5.55;3.30;;;22.40;99.90;;;;;;5034533;28;20045;-86
2022/05/21 01:25:52;;;;;;;5.00;3.58;;;22.40;99.90;;;;;;5037254;28;20033;-85
2022/05/21 01:28:21;;;;;;;6.28;3.40;;;22.40;99.90;;;;;;5052165;28;20519;-86
2022/05/21 01:30:53;;;;;;;10.35;3.38;;;22.50;99.90;;;;;;5046956;28;20029;-86
2022/05/21 01:33:22;;;;;;;4.90;3.50;;;22.40;99.90;;;;;;5039854;28;20029;-86
2022/05/21 01:35:48;;;;;;;5.97;3.28;;;22.40;99.90;;;;;;5047051;28;20072;-86
2022/05/21 01:38:16;;;;;;;5.68;3.58;;;22.40;99.90;;;;;;5060366;28;20103;-86
2022/05/21 01:40:42;;;;;;;5.22;3.22;;;22.40;99.90;;;;;;5037756;28;20108;-86
2022/05/21 01:45:53;;;;;;;5.68;3.05;;;22.50;99.90;;;;;;5049646;28;20047;-86
2022/05/21 01:48:21;;;;;;;6.45;3.22;;;22.50;99.90;;;;;;5045593;28;20037;-86
2022/05/21 01:50:48;;;;;;;7.38;3.60;;;22.30;99.90;;;;;;5035395;28;20026;-86
2022/05/21 01:53:15;;;;;;;6.10;3.70;;;22.30;99.90;;;;;;5050190;28;20390;-86
2022/05/21 01:55:42;;;;;;;5.80;3.80;;;22.30;99.90;;;;;;5048293;28;20044;-86
2022/05/21 01:58:07;;;;;;;6.28;3.58;;;22.20;99.90;;;;;;5041760;28;20075;-86
2022/05/21 02:00:34;;;;;;;5.10;3.42;;;22.00;99.90;;;;;;5048282;28;20033;-86
2022/05/21 02:03:00;;;;;;;3.55;3.17;;;21.90;99.90;;;;;;5036421;28;20391;-85
2022/05/21 02:05:25;;;;;;;5.07;3.90;;;21.90;99.90;;;;;;5034465;28;20028;-86
2022/05/21 02:07:51;;;;;;;5.97;4.03;;;21.90;99.90;;;;;;5035779;28;20394;-86
2022/05/21 02:10:17;;;;;;;7.57;3.80;;;21.80;99.90;;;;;;5037946;28;20013;-86
2022/05/21 02:12:42;;;;;;;9.05;3.60;;;21.80;99.90;;;;;;5068540;28;20049;-85
2022/05/21 02:15:09;;;;;;;6.70;3.70;;;21.70;99.90;;;;;;5050473;28;20413;-86
2022/05/21 02:17:35;;;;;;;6.03;3.63;;;21.50;99.90;;;;;;5035425;28;20555;-86
2022/05/21 02:20:00;;;;;;;8.80;3.67;;;21.40;99.90;;;;;;5034916;28;20026;-86
2022/05/21 02:22:29;;;;;;;5.85;3.47;;;21.40;99.90;;;;;;5047181;28;20025;-86
2022/05/21 02:24:55;;;;;;;6.97;3.80;;;21.30;99.90;;;;;;5045776;28;20025;-87
2022/05/21 02:27:21;;;;;;;5.90;3.78;;;21.50;99.90;;;;;;5045764;28;20028;-86
2022/05/21 02:29:46;;;;;;;7.55;3.70;;;21.30;99.90;;;;;;5050745;28;20026;-86
2022/05/21 02:32:14;;;;;;;7.25;4.05;;;21.20;99.90;;;;;;5049595;28;20108;-87
2022/05/21 02:34:40;;;;;;;9.30;3.80;;;21.10;99.90;;;;;;5047558;28;20128;-86
2022/05/21 02:39:50;;;;;;;4.82;3.55;;;21.10;99.90;;;;;;5040771;28;20043;-85
2022/05/21 02:45:00;;;;;;;5.60;4.13;;;21.20;99.90;;;;;;5035973;28;20198;-86
2022/05/21 02:47:26;;;;;;;8.25;4.13;;;21.20;99.90;;;;;;5049264;28;20021;-86
2022/05/21 02:49:52;;;;;;;7.40;3.90;;;21.20;99.90;;;;;;5047702;28;20036;-86
2022/05/21 02:52:17;;;;;;;7.22;4.03;;;21.20;99.90;;;;;;5046167;28;20056;-86
2022/05/21 02:54:43;;;;;;;9.45;4.25;;;21.20;99.90;;;;;;5045309;28;20036;-86
2022/05/21 02:57:10;;;;;;;6.85;4.22;;;21.10;99.90;;;;;;5045989;28;20021;-85
2022/05/21 02:59:37;;;;;;;8.20;4.22;;;21.10;99.90;;;;;;5063378;28;20054;-86
2022/05/21 03:02:03;;;;;;;9.32;5.00;;;21.10;99.90;;;;;;5033391;28;20038;-86
2022/05/21 03:04:29;;;;;;;8.05;4.50;;;21.20;99.90;;;;;;5035880;28;20064;-86
2022/05/21 03:06:54;;;;;;;10.80;4.53;;;21.10;99.90;;;;;;5037046;28;20029;-86
2022/05/21 03:12:05;;;;;;;6.55;4.57;;;20.80;99.90;;;;;;5038224;28;20116;-86
2022/05/21 03:14:30;;;;;;;8.20;4.40;;;20.60;99.90;;;;;;5066674;28;20108;-85
2022/05/21 03:16:59;;;;;;;7.45;4.68;;;20.60;99.90;;;;;;5052344;28;20044;-86
2022/05/21 03:19:29;;;;;;;6.72;4.63;;;20.70;99.90;;;;;;5053005;28;20043;-86
2022/05/21 03:21:56;;;;;;;8.77;4.80;;;20.50;99.90;;;;;;5043392;28;20041;-87
2022/05/21 03:24:21;;;;;;;7.30;4.70;;;20.50;99.90;;;;;;5040779;28;20060;-86
2022/05/21 03:26:47;;;;;;;7.32;4.63;;;20.30;99.90;;;;;;5038960;28;20061;-86
2022/05/21 03:29:13;;;;;;;6.95;4.22;;;20.20;99.90;;;;;;5064467;28;20071;-86
2022/05/21 03:31:38;;;;;;;7.00;4.78;;;20.30;99.90;;;;;;5054811;28;20040;-86
2022/05/21 03:34:04;;;;;;;8.93;4.93;;;20.30;99.90;;;;;;5047142;28;20060;-86
2022/05/21 03:36:30;;;;;;;6.35;4.65;;;20.30;99.90;;;;;;5046619;28;20029;-86
2022/05/21 03:38:57;;;;;;;6.32;4.55;;;20.40;99.90;;;;;;5037111;28;20100;-86
2022/05/21 03:41:23;;;;;;;8.43;5.40;;;20.40;99.90;;;;;;5052948;28;20080;-86
2022/05/21 03:43:50;;;;;;;7.55;4.65;;;20.30;99.90;;;;;;5061510;28;20464;-86
2022/05/21 03:46:15;;;;;;;8.27;4.85;;;20.20;99.90;;;;;;5048252;28;20029;-86
2022/05/21 03:48:41;;;;;;;8.05;5.15;;;20.20;99.90;;;;;;5048391;28;20021;-86
2022/05/21 03:51:07;;;;;;;7.63;5.15;;;20.20;99.90;;;;;;5049526;28;20074;-85
2022/05/21 03:53:33;;;;;;;9.80;5.40;;;20.20;99.90;;;;;;5037821;28;20033;-86
2022/05/21 03:55:58;;;;;;;9.73;5.80;;;20.30;99.90;;;;;;5037586;28;20486;-86
2022/05/21 03:58:25;;;;;;;8.23;5.35;;;20.30;99.90;;;;;;5061234;28;20114;-86
2022/05/21 04:00:51;;;;;;;9.50;5.45;;;20.20;99.90;;;;;;5051508;28;20029;-86
2022/05/21 04:03:17;;;;;;;9.88;5.50;;;20.10;99.90;;;;;;5048075;28;20032;-87
2022/05/21 04:05:43;;;;;;;9.07;5.32;;;20.10;99.90;;;;;;5051299;28;20429;-86
2022/05/21 04:08:09;;;;;;;10.70;5.50;;;20.20;99.90;;;;;;5037001;28;20039;-86
2022/05/21 04:10:35;;;;;;;10.13;5.90;;;20.20;99.90;;;;;;5039357;28;20025;-85
2022/05/21 04:13:01;;;;;;;9.80;5.53;;;20.10;99.90;;;;;;5045254;28;20496;-86
2022/05/21 04:15:26;;;;;;;8.93;5.43;;;20.00;99.90;;;;;;5047946;28;20025;-86
2022/05/21 04:17:53;;;;;;;9.52;5.75;;;20.00;99.90;;;;;;5046618;28;20040;-86
2022/05/21 04:20:21;;;;;;;8.05;5.45;;;20.00;99.90;;;;;;5062730;28;20052;-86
2022/05/21 04:22:47;;;;;;;5.95;5.10;;;19.90;99.90;;;;;;5050008;28;20056;-86
2022/05/21 04:25:13;;;;;;;8.23;4.85;;;20.10;99.90;;;;;;5039237;28;20478;-86
2022/05/21 04:27:39;;;;;;;7.78;5.03;;;20.00;99.90;;;;;;5047979;28;20490;-86
2022/05/21 04:30:07;;;;;;;7.30;4.82;;;19.90;99.90;;;;;;5047989;28;20048;-86
2022/05/21 04:32:33;;;;;;;9.93;4.80;;;19.60;99.90;;;;;;5050306;28;20029;-86
2022/05/21 04:34:59;;;;;;;7.15;4.50;;;19.50;99.90;;;;;;5050440;28;20052;-85
2022/05/21 04:37:24;;;;;;;8.63;4.53;;;19.60;99.90;;;;;;5048095;28;20040;-86
2022/05/21 04:39:50;;;;;;;6.55;5.07;;;19.70;99.90;;;;;;5042912;28;20032;-86
2022/05/21 04:42:16;;;;;;;7.28;4.93;;;19.70;99.90;;;;;;5038937;28;20033;-85
2022/05/21 04:44:42;;;;;;;8.57;5.80;;;19.40;99.90;;;;;;5049187;28;20452;-86
2022/05/21 04:47:07;;;;;;;8.80;5.22;;;19.20;99.90;;;;;;5050677;28;20029;-86
2022/05/21 04:49:34;;;;;;;9.60;5.05;;;19.00;99.90;;;;;;5049852;28;20025;-86
2022/05/21 04:52:02;;;;;;;7.00;5.15;;;18.90;99.90;;;;;;5047501;28;20036;-85
2022/05/21 04:54:29;;;;;;;7.15;5.40;;;18.90;99.90;;;;;;5041423;28;20021;-86
2022/05/21 04:56:55;;;;;;;9.15;5.80;;;19.20;99.90;;;;;;5040576;28;20028;-87
2022/05/21 04:59:20;;;;;;;8.18;4.75;;;19.40;99.90;;;;;;5035064;28;20022;-86
2022/05/21 05:01:46;;;;;;;8.05;4.85;;;19.30;99.90;;;;;;5049644;28;20029;-85
2022/05/21 05:04:12;;;;;;;9.30;4.80;;;19.40;99.90;;;;;;5047438;28;20492;-86
2022/05/21 05:06:39;;;;;;;8.23;5.22;;;19.60;99.90;;;;;;5047247;28;20029;-86
2022/05/21 05:09:09;;;;;;;7.53;4.80;;;19.80;99.90;;;;;;5045752;28;20037;-86
2022/05/21 05:11:34;;;;;;;7.32;5.60;;;19.90;99.90;;;;;;5049529;28;20087;-86
2022/05/21 05:14:00;;;;;;;7.97;5.22;;;20.00;99.90;;;;;;5050062;28;20025;-86
2022/05/21 05:16:26;;;;;;;7.53;4.78;;;20.10;99.90;;;;;;5035514;28;20033;-86
2022/05/21 05:18:52;;;;;;;6.35;5.13;;;20.20;99.90;;;;;;5044077;28;20032;-86
2022/05/21 05:21:17;;;;;;;8.27;5.03;;;20.10;99.90;;;;;;5046032;28;20393;-87
2022/05/21 05:23:43;;;;;;;7.78;4.93;;;19.80;99.90;;;;;;5037181;28;20033;-87
2022/05/21 05:26:09;;;;;;;11.77;5.30;;;19.80;99.90;;;;;;5034566;28;20044;-87
2022/05/21 05:28:35;;;;;;;5.28;4.32;;;20.00;99.90;;;;;;5037308;28;20036;-87
2022/05/21 05:31:00;;;;;;;7.13;4.70;;;20.10;99.90;;;;;;5037816;28;20127;-86
2022/05/21 05:33:28;;;;;;;8.27;4.97;;;20.30;99.90;;;;;;5038406;28;20025;-86
2022/05/21 05:35:54;;;;;;;7.32;5.18;;;20.40;99.90;;;;;;5051315;28;20044;-87
2022/05/21 05:38:21;;;;;;;7.63;4.65;;;20.00;99.90;;;;;;5051190;28;20037;-86
2022/05/21 05:40:49;;;;;;;11.55;4.88;;;20.20;99.90;;;;;;5048739;28;20484;-86
2022/05/21 05:43:17;;;;;;;6.93;4.43;;;20.00;99.90;;;;;;5037961;28;20049;-85
2022/05/21 05:45:42;;;;;;;6.15;4.25;;;20.20;99.90;;;;;;5041108;28;20112;-86
2022/05/21 05:48:08;;;;;;;9.27;4.72;;;20.10;99.90;;;;;;5054319;28;20124;-87
2022/05/21 05:50:34;;;;;;;10.73;5.15;;;20.20;99.90;;;;;;5049028;28;20115;-87
2022/05/21 05:53:05;;;;;;;7.30;4.57;;;20.40;99.90;;;;;;5049459;28;20040;-87
2022/05/21 05:55:32;;;;;;;9.40;5.22;;;20.50;99.90;;;;;;5037434;28;20026;-86
2022/05/21 05:57:58;;;;;;;7.07;4.93;;;20.50;99.90;;;;;;5038004;28;20072;-86
2022/05/21 06:00:25;;;;;;;7.68;4.57;;;20.60;99.90;;;;;;5042602;28;20021;-86
2022/05/21 06:02:59;;;;;;;6.43;4.70;;;20.60;99.90;;;;;;5058748;28;20502;-87
2022/05/21 06:05:28;;;;;;;10.77;4.72;;;20.70;99.90;;;;;;5035111;28;20117;-86
2022/05/21 06:07:56;;;;;;;7.90;4.75;;;20.80;99.90;;;;;;5048776;28;20025;-87
2022/05/21 06:10:28;;;;;;;7.00;4.75;;;20.80;99.90;;;;;;5047088;28;20108;-86
2022/05/21 06:12:54;;;;;;;6.63;4.75;;;20.90;99.90;;;;;;5045655;28;20090;-86
2022/05/21 06:15:20;;;;;;;6.70;4.88;;;20.90;99.90;;;;;;5044518;28;21260;-86
2022/05/21 06:17:45;;;;;;;5.40;4.43;;;21.00;99.90;;;;;;5056694;28;20029;-87
2022/05/21 06:20:14;;;;;;;5.43;4.45;;;21.10;99.90;;;;;;5049684;28;20022;-91
2022/05/21 06:22:42;;;;;;;7.63;4.60;;;21.20;99.90;;;;;;5037987;28;20094;-84
2022/05/21 06:25:09;;;;;;;6.35;4.35;;;21.30;99.90;;;;;;5037581;28;20026;-86
2022/05/21 06:27:34;;;;;;;9.40;4.40;;;21.30;99.90;;;;;;5037377;28;20505;-85
2022/05/21 06:30:00;;;;;;;7.13;4.25;;;21.30;99.90;;;;;;5037256;28;20021;-86
2022/05/21 06:32:26;;;;;;;6.95;4.70;;;21.50;99.90;;;;;;5057961;28;20025;-85
2022/05/21 06:34:52;;;;;;;7.40;4.70;;;21.60;99.90;;;;;;5036021;28;20060;-85
2022/05/21 06:37:17;;;;;;;6.63;5.32;;;21.60;99.90;;;;;;5036748;28;20116;-85
2022/05/21 06:39:43;;;;;;;7.22;4.68;;;21.60;99.90;;;;;;5037696;28;20036;-86
2022/05/21 06:42:11;;;;;;;5.43;4.78;;;21.60;99.90;;;;;;5037280;28;20029;-86
2022/05/21 06:44:37;;;;;;;7.28;4.50;;;21.70;99.90;;;;;;5035466;28;20034;-86
2022/05/21 06:47:03;;;;;;;8.63;4.63;;;21.70;99.90;;;;;;5062762;28;20036;-85
2022/05/21 06:49:29;;;;;;;6.25;4.63;;;21.80;99.90;;;;;;5036659;28;20128;-86
2022/05/21 06:51:56;;;;;;;6.45;5.18;;;21.70;99.90;;;;;;5037488;28;20096;-85
2022/05/21 06:54:23;;;;;;;8.57;5.00;;;21.60;99.90;;;;;;5037430;28;20091;-85
2022/05/21 06:56:49;;;;;;;6.40;4.45;;;21.60;99.90;;;;;;5036588;28;20070;-86
2022/05/21 06:59:15;;;;;;;7.85;4.78;;;21.70;99.90;;;;;;5031243;28;20029;-86
2022/05/21 07:01:42;;;;;;;5.90;4.45;;;21.70;99.90;;;;;;5054975;28;20389;-85
2022/05/21 07:04:08;;;;;;;6.22;4.60;;;21.80;99.90;;;;;;5045352;28;20064;-85
2022/05/21 07:09:20;;;;;;;6.95;4.70;;;21.90;99.90;;;;;;5045860;28;20135;-86
2022/05/21 07:11:47;;;;;;;7.53;4.82;;;21.90;99.90;;;;;;5050116;28;20024;-84
2022/05/21 07:14:12;;;;;;;6.20;4.65;;;21.90;99.90;;;;;;5033424;28;20151;-84
2022/05/21 07:16:38;;;;;;;6.88;5.05;;;21.90;99.90;;;;;;5036510;28;20105;-84
2022/05/21 07:19:04;;;;;;;7.95;5.82;;;22.00;99.90;;;;;;5036306;28;20029;-84
2022/05/21 07:21:30;;;;;;;8.60;4.90;;;21.90;99.90;;;;;;5042604;28;20041;-85
2022/05/21 07:23:55;;;;;;;9.80;4.30;;;22.00;99.90;;;;;;5054216;28;20033;-84
2022/05/21 07:26:21;;;;;;;6.57;4.40;;;22.20;99.90;;;;;;5049589;28;20111;-84
2022/05/21 07:28:46;;;;;;;9.38;4.57;;;22.30;99.90;;;;;;5047695;28;20425;-84
2022/05/21 07:31:12;;;;;;;6.28;4.45;;;22.40;99.90;;;;;;5045344;28;20032;-86
2022/05/21 07:33:38;;;;;;;9.48;4.70;;;22.40;99.90;;;;;;5045437;28;20029;-85
2022/05/21 07:36:04;;;;;;;5.57;4.03;;;22.50;99.90;;;;;;5045419;28;20029;-84
2022/05/21 07:38:29;;;;;;;6.65;4.00;;;22.70;99.90;;;;;;5054808;28;20063;-84
2022/05/21 07:40:55;;;;;;;6.38;4.35;;;22.60;99.90;;;;;;5047512;28;20053;-84
2022/05/21 07:43:27;;;;;;;7.38;4.43;;;22.60;99.90;;;;;;5045894;28;20041;-84
2022/05/21 07:45:54;;;;;;;7.65;4.15;;;22.70;99.90;;;;;;5045287;28;20039;-84
2022/05/21 07:48:21;;;;;;;7.53;4.30;;;22.80;99.90;;;;;;5045095;28;20035;-84
2022/05/21 07:50:52;;;;;;;8.77;4.30;;;22.80;99.90;;;;;;5048231;28;20048;-84
2022/05/21 07:53:30;;;;;;;8.38;4.22;;;22.90;99.90;;;;;;5057197;28;20037;-84
2022/05/21 07:55:56;;;;;;;6.43;4.20;;;22.90;99.90;;;;;;5047511;28;20074;-84
2022/05/21 07:58:24;;;;;;;6.57;4.47;;;23.00;99.90;;;;;;5047704;28;20052;-84
2022/05/21 08:00:51;;;;;;;8.90;4.95;;;23.10;99.90;;;;;;5055498;28;20138;-87
2022/05/21 08:03:17;;;;;;;7.70;4.22;;;23.10;99.90;;;;;;5056820;28;20510;-87
2022/05/21 08:05:43;;;;;;;6.38;4.35;;;23.00;99.90;;;;;;5050967;28;20025;-88
2022/05/21 08:08:10;;;;;;;7.63;4.53;;;23.30;99.90;;;;;;5059936;28;20066;-88
2022/05/21 08:10:38;;;;;;;4.97;4.38;;;23.20;99.90;;;;;;5049187;28;20371;-88
2022/05/21 08:13:06;;;;;;;6.80;4.55;;;23.20;99.90;;;;;;5047651;28;20478;-88
2022/05/21 08:15:32;;;;;;;6.10;4.60;;;23.20;99.90;;;;;;5042091;28;20037;-89
2022/05/21 08:17:59;;;;;;;8.43;4.55;;;23.30;99.90;;;;;;5048192;28;20049;-89
2022/05/21 08:20:24;;;;;;;7.93;4.63;;;23.50;99.90;;;;;;5052518;28;20037;-87
2022/05/21 08:28:18;;;;;;;5.15;4.53;;;23.60;99.90;;;;;;5049897;28;20036;-87
2022/05/21 08:30:45;;;;;;;6.93;4.55;;;23.70;99.90;;;;;;5050303;28;20029;-87
2022/05/21 08:33:12;;;;;;;7.30;4.72;;;23.80;99.90;;;;;;5060696;28;20031;-87
2022/05/21 08:35:38;;;;;;;8.95;5.07;;;23.80;99.90;;;;;;5050251;28;20135;-87
2022/05/21 08:38:05;;;;;;;7.00;4.80;;;23.90;99.90;;;;;;5050978;28;20025;-87
2022/05/21 08:41:05;;;;;;;8.38;4.55;;;24.10;99.90;;;;;;5048045;28;20025;-87
2022/05/21 08:43:44;;;;;;;6.53;4.55;;;24.10;99.90;;;;;;5039068;28;20049;-87
2022/05/21 08:46:22;;;;;;;7.90;4.57;;;24.20;99.90;;;;;;5046541;28;20025;-87
2022/05/21 08:48:56;;;;;;;6.70;4.88;;;24.30;99.90;;;;;;5047566;28;20033;-87
2022/05/21 08:51:27;;;;;;;8.30;4.60;;;24.40;99.90;;;;;;5047955;28;20115;-87
2022/05/21 08:53:53;;;;;;;8.55;4.90;;;24.60;99.90;;;;;;5045848;28;20056;-87
2022/05/21 08:56:20;;;;;;;6.53;4.50;;;24.60;99.90;;;;;;5052458;28;20387;-87
2022/05/21 08:58:55;;;;;;;12.90;5.18;;;24.80;99.90;;;;;;5091076;28;20038;-87
2022/05/21 09:01:23;;;;;;;8.57;5.10;;;24.90;99.90;;;;;;5058272;28;20025;-87
2022/05/21 09:03:52;;;;;;;7.82;4.65;;;24.70;99.90;;;;;;5055249;28;20409;-87
2022/05/21 09:06:18;;;;;;;12.75;5.65;;;24.60;99.90;;;;;;5048123;28;20022;-87
2022/05/21 09:09:30;;;;;;;5.90;5.00;;;24.70;99.90;;;;;;5052819;28;20031;-87
2022/05/21 09:12:16;;;;;;;8.38;5.40;;;24.80;99.90;;;;;;5017053;28;20522;-87
2022/05/21 09:14:44;;;;;;;7.57;4.80;;;24.90;99.90;;;;;;5031397;28;20120;-87
2022/05/21 09:17:23;;;;;;;8.02;5.30;;;24.90;99.90;;;;;;5029775;28;20508;-87
2022/05/21 09:19:50;;;;;;;8.77;4.93;;;25.00;99.90;;;;;;5013443;28;20455;-87
2022/05/21 09:22:19;;;;;;;9.02;5.80;;;25.10;99.90;;;;;;5030583;28;20076;-88
2022/05/21 09:24:59;;;;;;;11.32;5.72;;;25.30;99.90;;;;;;5024048;28;20108;-87
2022/05/21 09:27:36;;;;;;;6.95;5.93;;;25.30;99.90;;;;;;5019863;28;20029;-87
2022/05/21 09:30:20;;;;;;;8.95;5.55;;;25.30;99.90;;;;;;5018055;28;20044;-89
2022/05/21 09:32:52;;;;;;;7.18;5.60;;;25.40;99.90;;;;;;5030209;28;20652;-88
2022/05/21 09:35:24;;;;;;;10.25;5.75;;;25.60;99.90;;;;;;5014972;28;20033;-87
2022/05/21 09:37:50;;;;;;;11.30;6.10;;;25.60;99.90;;;;;;5030850;28;20116;-88
2022/05/21 09:40:36;;;;;;;12.20;6.32;;;25.60;99.90;;;;;;5047434;28;20132;-88
2022/05/21 09:46:29;;;;;;;12.70;6.28;;;25.90;99.90;;;;;;5020609;28;20029;-89
2022/05/21 09:49:11;;;;;;;9.95;6.50;;;25.70;99.90;;;;;;5040521;28;20045;-88
2022/05/21 09:51:38;;;;;;;9.05;5.90;;;25.70;99.90;;;;;;5046261;28;20025;-87
2022/05/21 09:54:19;;;;;;;10.23;6.38;;;25.90;99.90;;;;;;5046688;28;20056;-87
2022/05/21 09:56:54;;;;;;;9.88;7.03;;;26.00;99.90;;;;;;5047587;28;20021;-87
2022/05/21 09:59:23;;;;;;;8.30;6.63;;;25.90;99.90;;;;;;5035630;28;20072;-87
2022/05/21 10:01:53;;;;;;;8.63;6.60;;;26.00;99.90;;;;;;5043688;28;20107;-87
2022/05/21 10:04:48;;;;;;;8.43;6.13;;;26.00;99.90;;;;;;5038014;28;20383;-87
2022/05/21 10:13:04;;;;;;;9.38;6.28;;;26.30;99.90;;;;;;5036287;28;20056;-94
2022/05/21 10:15:40;;;;;;;9.80;6.60;;;26.40;99.90;;;;;;5039430;28;20049;-93
2022/05/21 10:18:30;;;;;;;9.88;6.85;;;26.30;99.90;;;;;;5041383;28;20030;-95
2022/05/21 10:21:22;;;;;;;9.18;6.25;;;26.50;99.90;;;;;;5058176;28;20121;-94
2022/05/21 10:23:54;;;;;;;10.52;6.15;;;26.50;99.90;;;;;;5053286;28;20040;-90
2022/05/21 10:26:58;;;;;;;7.10;5.53;;;26.50;99.90;;;;;;5066515;28;20108;-92
2022/05/21 10:29:30;;;;;;;8.95;5.80;;;26.70;99.90;;;;;;5029922;28;20045;-96
2022/05/21 10:32:11;;;;;;;9.18;6.22;;;26.60;99.90;;;;;;5041086;28;20036;-96
2022/05/21 10:34:52;;;;;;;10.73;6.32;;;26.70;99.90;;;;;;5054089;28;20057;-96
2022/05/21 10:37:23;;;;;;;10.85;6.13;;;26.70;99.90;;;;;;5047862;28;20033;-92
2022/05/21 10:40:20;;;;;;;9.50;5.57;;;26.80;99.90;;;;;;5047033;28;20047;-93
2022/05/21 10:43:06;;;;;;;7.25;5.95;;;27.10;99.90;;;;;;5046531;28;20045;-96
2022/05/21 10:45:37;;;;;;;7.10;5.80;;;27.10;99.90;;;;;;5045965;28;20064;-94
2022/05/21 10:48:40;;;;;;;8.88;5.80;;;27.50;99.90;;;;;;5048049;28;20040;-95
2022/05/21 10:51:20;;;;;;;9.25;5.63;;;27.40;99.90;;;;;;5047646;28;20029;-91
2022/05/21 10:53:53;;;;;;;7.90;5.45;;;27.40;99.90;;;;;;5045807;28;20040;-91
2022/05/21 10:56:44;;;;;;;6.15;5.55;;;27.30;99.90;;;;;;5035155;28;20080;-90
2022/05/21 10:59:21;;;;;;;7.45;5.40;;;27.20;99.90;;;;;;5064839;28;20039;-90
2022/05/21 11:02:09;;;;;;;10.43;6.00;;;27.40;99.90;;;;;;5053513;28;20031;-91
2022/05/21 11:05:21;;;;;;;9.05;6.05;;;27.30;99.90;;;;;;5036464;28;20078;-93
2022/05/21 11:08:05;;;;;;;8.23;5.70;;;27.40;99.90;;;;;;5033979;28;20036;-92
2022/05/21 11:10:37;;;;;;;8.82;6.15;;;27.70;99.90;;;;;;5038495;28;20034;-93
2022/05/21 11:13:17;;;;;;;9.93;6.53;;;27.80;99.90;;;;;;5040629;28;20052;-95
2022/05/21 11:16:01;;;;;;;8.85;5.55;;;28.00;99.90;;;;;;5053372;28;20561;-91
2022/05/21 11:18:46;;;;;;;12.95;6.38;;;27.80;99.90;;;;;;5037298;28;20040;-94
2022/05/21 11:21:31;;;;;;;12.10;6.13;;;27.80;99.90;;;;;;5037662;28;20039;-94
2022/05/21 11:24:05;;;;;;;11.10;5.68;;;27.90;99.90;;;;;;5050458;28;20045;-94
2022/05/21 11:26:56;;;;;;;8.52;5.45;;;28.20;99.90;;;;;;5033643;28;20026;-93
2022/05/21 11:29:24;;;;;;;53.83;12.55;;;28.30;99.90;;;;;;5034248;28;20035;-92
2022/05/21 11:37:51;;;;;;;8.43;5.70;;;28.70;99.90;;;;;;5053769;28;20036;-92
2022/05/21 11:40:50;;;;;;;6.65;5.45;;;28.80;99.90;;;;;;5062474;28;20542;-93
2022/05/21 11:43:20;;;;;;;7.00;5.95;;;28.70;99.90;;;;;;5042982;28;20033;-92
2022/05/21 11:46:07;;;;;;;19.63;6.90;;;28.70;99.90;;;;;;5046507;28;20040;-92
2022/05/21 11:48:33;;;;;;;6.80;5.35;;;28.90;99.90;;;;;;5057509;28;20129;-92
2022/05/21 11:51:25;;;;;;;9.52;5.15;;;29.00;99.90;;;;;;5051848;28;20044;-92
2022/05/21 11:53:51;;;;;;;9.25;5.22;;;29.00;99.90;;;;;;5072700;28;20048;-93
2022/05/21 11:56:17;;;;;;;9.98;5.57;;;29.20;99.90;;;;;;5069720;28;20037;-93
2022/05/21 11:59:06;;;;;;;8.35;5.45;;;29.50;99.90;;;;;;5042084;28;20026;-93
2022/05/21 12:01:38;;;;;;;10.23;5.35;;;29.50;99.90;;;;;;5084784;28;20044;-92
2022/05/21 12:04:05;;;;;;;7.15;4.68;;;29.70;99.90;;;;;;5051838;28;20033;-93
2022/05/21 12:06:49;;;;;;;8.35;4.88;;;30.20;99.90;;;;;;5046546;28;20025;-93
2022/05/21 12:09:23;;;;;;;6.95;5.03;;;30.70;99.90;;;;;;5042725;28;20029;-91
2022/05/21 12:11:49;;;;;;;8.63;5.07;;;31.00;99.90;;;;;;5039011;28;20163;-93
2022/05/21 12:14:25;;;;;;;6.50;4.57;;;31.10;99.90;;;;;;5053354;28;20021;-93
2022/05/21 12:17:00;;;;;;;10.90;5.20;;;31.10;99.90;;;;;;5061054;28;20025;-93
2022/05/21 12:19:52;;;;;;;9.55;5.25;;;31.30;99.90;;;;;;5050453;28;20029;-93
2022/05/21 12:22:42;;;;;;;10.98;5.20;;;31.80;99.90;;;;;;5051171;28;20330;-93
2022/05/21 12:25:14;;;;;;;6.65;4.53;;;31.90;99.90;;;;;;5042557;28;20053;-93
2022/05/21 12:27:57;;;;;;;6.88;4.97;;;31.90;99.90;;;;;;5048207;28;20217;-93
2022/05/21 12:30:27;;;;;;;4.97;4.47;;;32.40;99.90;;;;;;5048662;28;20021;-94
2022/05/21 12:32:52;;;;;;;11.75;5.20;;;32.80;99.90;;;;;;5056716;28;20546;-92
2022/05/21 12:35:42;;;;;;;6.97;4.70;;;32.90;99.90;;;;;;5037307;28;20037;-93
2022/05/21 12:38:31;;;;;;;7.22;4.97;;;33.10;99.90;;;;;;5037291;28;20021;-93
2022/05/21 12:41:06;;;;;;;9.57;4.72;;;33.00;99.90;;;;;;5061711;28;20032;-93
2022/05/21 12:43:44;;;;;;;8.25;4.70;;;33.50;99.90;;;;;;5051698;28;20037;-94
2022/05/21 12:46:25;;;;;;;34.20;9.20;;;33.50;99.90;;;;;;5050985;28;20016;-94
2022/05/21 12:48:52;;;;;;;13.45;5.63;;;33.90;99.90;;;;;;5052297;28;20398;-93
2022/05/21 12:51:42;;;;;;;29.52;7.38;;;33.80;99.90;;;;;;5048615;28;20029;-94
2022/05/21 12:54:28;;;;;;;5.65;4.25;;;34.00;99.90;;;;;;5038964;28;20033;-93
2022/05/21 12:56:56;;;;;;;6.82;4.50;;;34.10;99.90;;;;;;5037307;28;20465;-94
2022/05/21 12:59:30;;;;;;;7.97;4.60;;;34.70;99.90;;;;;;5053693;28;20399;-93
2022/05/21 13:02:14;;;;;;;8.73;4.38;;;35.20;99.90;;;;;;5053440;28;20032;-93
2022/05/21 13:04:42;;;;;;;7.82;4.82;;;35.60;99.90;;;;;;5039195;28;20044;-94
2022/05/21 13:07:11;;;;;;;7.05;4.80;;;35.30;99.90;;;;;;5051254;28;20025;-93
2022/05/21 13:09:47;;;;;;;7.97;4.70;;;34.50;99.90;;;;;;5047944;28;20025;-94
2022/05/21 13:12:15;;;;;;;10.25;4.53;;;34.40;99.90;;;;;;5050360;28;20029;-93
2022/05/21 13:14:42;;;;;;;7.32;4.45;;;34.30;99.90;;;;;;5039248;28;20087;-93
2022/05/21 13:17:23;;;;;;;7.53;4.90;;;34.70;99.90;;;;;;5061701;28;20082;-94
2022/05/21 13:20:18;;;;;;;10.35;4.88;;;35.10;99.90;;;;;;5050652;28;20021;-94
2022/05/21 13:22:47;;;;;;;9.95;4.65;;;35.00;99.90;;;;;;5031708;28;20052;-93
2022/05/21 13:25:15;;;;;;;26.10;7.15;;;35.30;99.90;;;;;;5001085;28;20044;-93
2022/05/21 13:27:54;;;;;;;12.35;4.70;;;35.30;99.90;;;;;;5023220;28;20521;-93
2022/05/21 13:30:30;;;;;;;32.58;12.98;;;35.40;99.90;;;;;;5024703;28;20411;-93
2022/05/21 13:32:58;;;;;;;8.80;4.82;;;34.80;99.90;;;;;;5026759;28;20032;-93
2022/05/21 13:35:38;;;;;;;6.68;4.50;;;34.30;99.90;;;;;;5006000;28;20052;-93
2022/05/21 13:38:07;;;;;;;7.45;4.60;;;34.40;99.90;;;;;;5031880;28;20156;-93
2022/05/21 13:40:44;;;;;;;8.88;4.88;;;34.20;99.90;;;;;;5005839;28;20530;-92